Main page
METAR-TAF:

METAR-TAF

Airports :

Coleman Municipal Airport

Coleman, Texas, United States

latitude: 31-50-28N, longitude: 099-24-12W, elevation: 1696 ft

Current weather observation

The report was made 27 minutes ago, at 14:55 UTC
Wind 16 mph from the North/Northwest with gusts up to 21 mph
Temperature 37°F
Humidity 75%
Pressure 30.34 in. Hg
Visibility: 10 miles
Scattered clouds at a height of 1700 ft
Overcast at a height of 2900 ft

METAR: KCOM 181455Z AUTO 34014G18KT 10SM SCT017 OVC029 03/M01 A3034 RMK AO2 T00301014

Time: 08:22 (15:22 UTC)


TAF: missing

Weather observations and forecasts of more than 4000 airports (METAR and TAF reports).

The available stations are represented by yellow and red dots on the map.

Hover mouse over dot to see the name of the station.

Then click to see weather observations and forecasts.

To change the map : click on the green buttons with a black cross to zoom in, on the green button with a dash to zoom out, or on the green arrows for adjacent maps.


METAR-TAF: